Time;durP1;ratioP1;P1;durP2;ratioP2;P2;SDS_P1;SDS_P2;PMS_P1;PMS_P2;Temp;Humidity;BMP_temperature;BMP_pressure;BME280_temperature;BME280_humidity;BME280_pressure;Samples;Min_cycle;Max_cycle;Signal;HPM_P1;HPM_P2
2023/09/12 03:53:22;;;;;;;1.00;0.80;;;20.00;61.10;;;;;;6301166;22;20180;31
2023/09/12 03:55:53;;;;;;;0.30;0.30;;;20.00;61.20;;;;;;6272466;22;20212;-85
2023/09/12 03:58:22;;;;;;;0.50;0.50;;;20.00;61.20;;;;;;6273404;22;20158;-86
2023/09/12 04:00:53;;;;;;;0.50;0.50;;;20.00;61.30;;;;;;6271011;22;20196;-85
2023/09/12 04:03:24;;;;;;;0.87;0.57;;;20.00;61.60;;;;;;6272462;22;20232;-86
2023/09/12 04:05:53;;;;;;;0.73;0.43;;;20.00;61.50;;;;;;6274012;22;20172;-87
2023/09/12 04:08:22;;;;;;;0.43;0.40;;;20.00;61.50;;;;;;6274721;22;20177;-86
2023/09/12 06:03:15;;;;;;;2.93;0.80;;;21.00;62.50;;;;;;6272353;22;20259;-84
2023/09/12 06:05:44;;;;;;;1.33;0.98;;;21.10;62.70;;;;;;6273929;22;20165;-84
2023/09/12 06:08:12;;;;;;;1.35;0.75;;;21.10;62.70;;;;;;6274848;22;20166;-85
2023/09/12 06:10:41;;;;;;;0.85;0.70;;;21.20;63.00;;;;;;6273104;22;20170;-85
2023/09/12 06:13:09;;;;;;;0.40;0.40;;;21.20;62.70;;;;;;6272688;22;20223;-83
2023/09/12 06:15:41;;;;;;;0.38;0.38;;;21.30;62.90;;;;;;6273128;22;20488;-83
2023/09/12 06:18:10;;;;;;;0.63;0.63;;;21.40;62.70;;;;;;6273962;22;20217;-85
2023/09/12 06:20:40;;;;;;;1.90;0.73;;;21.50;62.70;;;;;;6274728;22;20180;-84
2023/09/12 06:23:10;;;;;;;0.75;0.75;;;21.60;62.50;;;;;;6249451;22;20161;-84
2023/09/12 06:25:38;;;;;;;0.68;0.65;;;21.70;62.50;;;;;;6275573;22;20172;-85
2023/09/12 06:28:07;;;;;;;3.50;1.05;;;21.70;62.50;;;;;;6276303;22;20177;-84
2023/09/12 06:30:36;;;;;;;0.30;0.30;;;21.80;62.60;;;;;;6272546;22;20169;-84
2023/09/12 06:33:05;;;;;;;1.33;1.13;;;21.90;63.10;;;;;;6274291;22;20256;-84
2023/09/12 06:35:34;;;;;;;8.57;0.88;;;21.90;62.80;;;;;;6271955;22;20203;-84
2023/09/12 06:38:04;;;;;;;0.43;0.30;;;22.00;62.70;;;;;;6272127;22;20189;-86
2023/09/12 06:40:32;;;;;;;1.05;0.77;;;22.10;62.60;;;;;;6271254;22;20158;-91
2023/09/12 06:43:02;;;;;;;0.95;0.95;;;22.20;62.50;;;;;;6273648;22;20188;-85
2023/09/12 06:45:32;;;;;;;1.35;1.15;;;22.30;62.40;;;;;;6273797;22;20212;-83
2023/09/12 06:48:04;;;;;;;1.30;0.60;;;22.30;62.20;;;;;;6268981;22;20156;-83
2023/09/12 06:50:32;;;;;;;0.70;0.50;;;22.40;62.20;;;;;;6272139;22;20538;-85
2023/09/12 06:53:05;;;;;;;0.55;0.55;;;22.50;62.10;;;;;;6274197;22;20161;-84
2023/09/12 06:55:34;;;;;;;1.05;0.63;;;22.60;62.20;;;;;;6272319;22;20238;-84
2023/09/12 06:58:03;;;;;;;6.20;1.35;;;22.60;62.20;;;;;;6272451;22;20200;-84
2023/09/12 07:00:32;;;;;;;3.97;1.10;;;22.70;62.00;;;;;;6273579;22;20554;-84
2023/09/12 07:03:01;;;;;;;10.15;0.50;;;22.80;61.90;;;;;;6274791;22;20272;-86
2023/09/12 07:05:30;;;;;;;0.73;0.63;;;22.80;61.70;;;;;;6271877;22;20200;-85
2023/09/12 07:07:59;;;;;;;0.43;0.35;;;23.00;61.60;;;;;;6275361;22;20204;-87
2023/09/12 07:10:29;;;;;;;2.22;1.50;;;23.00;61.60;;;;;;6274266;22;20173;-84
2023/09/12 07:12:59;;;;;;;7.40;1.85;;;23.10;61.40;;;;;;6275217;22;20180;-85
2023/09/12 07:15:28;;;;;;;13.75;0.75;;;23.20;61.20;;;;;;6274704;22;20165;-84
2023/09/12 07:17:56;;;;;;;0.57;0.57;;;23.30;61.10;;;;;;6276392;22;20239;-86
2023/09/12 07:20:34;;;;;;;1.05;0.77;;;23.30;60.50;;;;;;6272935;22;20158;-85
2023/09/12 07:23:02;;;;;;;3.60;0.30;;;23.30;60.20;;;;;;6273019;22;20547;-86
2023/09/12 07:25:38;;;;;;;0.50;0.50;;;23.40;60.10;;;;;;6275345;22;20618;-86
2023/09/12 07:28:07;;;;;;;0.30;0.30;;;23.50;59.90;;;;;;6276014;22;20595;-85
2023/09/12 07:30:36;;;;;;;0.47;0.47;;;23.60;59.70;;;;;;6274069;22;20299;-87
2023/09/12 07:33:06;;;;;;;0.60;0.60;;;23.60;59.50;;;;;;6275961;22;20525;-87
2023/09/12 07:35:34;;;;;;;0.40;0.40;;;23.70;59.40;;;;;;6274696;22;20196;-86
2023/09/12 07:38:03;;;;;;;0.50;0.50;;;23.80;59.40;;;;;;6273465;22;20193;-87
2023/09/12 07:40:33;;;;;;;0.32;0.32;;;23.90;59.10;;;;;;6273218;22;20170;-82
2023/09/12 07:43:02;;;;;;;0.35;0.35;;;24.00;59.00;;;;;;6274361;22;20174;-82
2023/09/12 07:45:36;;;;;;;0.82;0.60;;;24.00;58.90;;;;;;6274906;22;20174;-84
2023/09/12 07:48:08;;;;;;;0.95;0.63;;;24.00;58.60;;;;;;6272083;22;20583;-83
2023/09/12 07:50:38;;;;;;;0.40;0.40;;;24.10;58.60;;;;;;6271566;22;20154;-82
2023/09/12 07:53:07;;;;;;;0.73;0.40;;;24.20;58.60;;;;;;6271370;22;20241;-80
2023/09/12 07:55:45;;;;;;;1.27;0.90;;;24.30;58.50;;;;;;6273158;22;20208;-82
2023/09/12 07:58:14;;;;;;;2.60;0.70;;;24.40;58.40;;;;;;6271720;22;20266;-81
2023/09/12 08:00:43;;;;;;;0.52;0.52;;;24.40;58.40;;;;;;6272515;22;20249;-80
2023/09/12 08:03:11;;;;;;;2.55;1.75;;;24.50;58.10;;;;;;6271081;22;20180;-80
2023/09/12 08:05:40;;;;;;;1.27;1.17;;;24.50;57.70;;;;;;6271196;22;20169;-80
2023/09/12 08:08:08;;;;;;;1.35;0.98;;;24.60;57.50;;;;;;6270773;22;20166;-81
2023/09/12 08:10:38;;;;;;;0.85;0.85;;;24.70;57.30;;;;;;6271196;22;20230;-81
2023/09/12 08:13:06;;;;;;;0.88;0.85;;;24.80;57.30;;;;;;6272900;22;20177;-81
2023/09/12 08:15:35;;;;;;;0.63;0.60;;;24.80;57.40;;;;;;6270908;22;20176;-80
2023/09/12 08:18:04;;;;;;;0.70;0.70;;;24.90;57.30;;;;;;6270151;22;20201;-82
2023/09/12 08:20:33;;;;;;;0.38;0.38;;;25.00;57.10;;;;;;6271239;22;20173;-83
2023/09/12 08:23:01;;;;;;;0.90;0.70;;;25.00;56.80;;;;;;6272210;22;20170;-83
2023/09/12 08:25:30;;;;;;;1.42;0.80;;;25.10;56.60;;;;;;6270288;22;20169;-82
2023/09/12 08:28:00;;;;;;;0.60;0.60;;;25.20;56.40;;;;;;6272511;22;20253;-81
2023/09/12 08:30:29;;;;;;;0.75;0.75;;;25.20;56.00;;;;;;6273132;22;20197;-80
2023/09/12 08:32:58;;;;;;;0.93;0.88;;;25.30;56.30;;;;;;6285729;22;20170;-83
2023/09/12 08:35:27;;;;;;;0.52;0.40;;;25.40;56.30;;;;;;6283492;22;20169;-83
2023/09/12 08:37:55;;;;;;;1.30;0.93;;;25.40;56.10;;;;;;6286069;22;20193;-81
2023/09/12 08:40:24;;;;;;;0.65;0.65;;;25.50;55.90;;;;;;6273931;22;20170;-80
2023/09/12 08:42:53;;;;;;;0.47;0.47;;;25.60;55.70;;;;;;6278191;22;20180;-80
2023/09/12 08:45:23;;;;;;;0.57;0.57;;;25.60;55.70;;;;;;6272377;22;20179;-82
2023/09/12 08:47:54;;;;;;;0.30;0.30;;;25.70;55.90;;;;;;6271085;22;20172;-82
2023/09/12 08:50:24;;;;;;;0.52;0.52;;;25.80;55.70;;;;;;6272248;22;20174;-82
2023/09/12 08:52:54;;;;;;;0.47;0.47;;;25.90;55.70;;;;;;6274149;22;20607;-82
2023/09/12 08:55:35;;;;;;;0.40;0.40;;;25.90;55.10;;;;;;6273471;22;20259;-82
2023/09/12 08:58:05;;;;;;;0.30;0.30;;;26.00;55.20;;;;;;6271122;22;20174;-81
2023/09/12 09:00:36;;;;;;;0.73;0.73;;;26.10;54.40;;;;;;6272141;22;20173;-83
2023/09/12 09:03:06;;;;;;;0.57;0.57;;;26.10;53.90;;;;;;6272717;22;20193;-82
2023/09/12 09:05:38;;;;;;;2.53;1.55;;;26.20;54.10;;;;;;6273253;22;20189;-84
2023/09/12 09:08:08;;;;;;;0.38;0.38;;;26.20;54.30;;;;;;6273554;22;20165;-84
2023/09/12 09:10:37;;;;;;;1.77;1.35;;;26.30;54.30;;;;;;6270468;22;20165;-83
2023/09/12 09:13:18;;;;;;;1.02;0.95;;;26.40;54.00;;;;;;6268623;22;20161;-84
2023/09/12 09:15:48;;;;;;;4.70;1.45;;;26.40;53.60;;;;;;6271096;22;20172;-83
2023/09/12 09:18:17;;;;;;;5.25;1.10;;;26.50;53.40;;;;;;6266958;22;20696;-85
2023/09/12 09:20:49;;;;;;;0.47;0.47;;;26.50;53.20;;;;;;6269041;22;20220;-84
2023/09/12 09:23:18;;;;;;;0.98;0.70;;;26.60;53.00;;;;;;6271709;22;20232;-83
2023/09/12 09:25:53;;;;;;;0.93;0.82;;;26.70;53.10;;;;;;6267857;22;20475;-81
2023/09/12 09:28:23;;;;;;;4.57;1.27;;;26.70;52.80;;;;;;6267782;22;20158;-81
2023/09/12 09:30:54;;;;;;;1.58;0.40;;;26.80;52.70;;;;;;6267700;22;20166;-82
2023/09/12 09:33:24;;;;;;;3.55;1.88;;;26.90;53.10;;;;;;6268360;22;20189;-81
2023/09/12 09:36:03;;;;;;;1.58;1.48;;;26.90;53.20;;;;;;6267206;22;20212;-81
2023/09/12 09:38:32;;;;;;;0.65;0.65;;;27.00;53.10;;;;;;6271344;22;20181;-82
2023/09/12 09:41:01;;;;;;;1.73;0.52;;;27.00;52.70;;;;;;6269572;22;20193;-82
2023/09/12 09:43:33;;;;;;;0.40;0.40;;;27.10;52.20;;;;;;6270673;22;20172;-81
2023/09/12 09:46:04;;;;;;;0.70;0.70;;;27.20;52.30;;;;;;6268296;22;20261;-82
2023/09/12 09:48:33;;;;;;;0.40;0.40;;;27.20;52.30;;;;;;6270153;22;20158;-81
2023/09/12 09:51:02;;;;;;;1.55;0.57;;;27.30;52.10;;;;;;6269358;22;20170;-83
2023/09/12 09:53:32;;;;;;;0.80;0.80;;;27.40;52.20;;;;;;6270533;22;20170;-82
2023/09/12 09:56:11;;;;;;;0.50;0.50;;;27.40;53.10;;;;;;6269621;22;20158;-83
2023/09/12 09:58:48;;;;;;;1.20;0.50;;;27.50;51.70;;;;;;6271479;22;20204;-81
2023/09/12 10:01:20;;;;;;;1.10;0.65;;;27.50;51.60;;;;;;6269309;22;20197;-81
2023/09/12 10:03:50;;;;;;;0.50;0.50;;;27.60;52.40;;;;;;6269396;22;20158;-83
2023/09/12 10:06:20;;;;;;;0.75;0.57;;;27.60;51.80;;;;;;6270773;22;21044;-82
2023/09/12 10:08:52;;;;;;;0.70;0.68;;;27.70;52.00;;;;;;6270717;22;20223;-80
2023/09/12 10:20:00;;;;;;;0.80;0.68;;;27.90;51.50;;;;;;5969099;23;20618;-82
2023/09/12 10:22:33;;;;;;;1.02;0.93;;;28.00;51.80;;;;;;5972789;23;20182;-81
2023/09/12 10:25:02;;;;;;;0.52;0.50;;;28.00;51.50;;;;;;6069528;23;20178;-82
2023/09/12 10:27:32;;;;;;;0.45;0.45;;;28.10;51.60;;;;;;6264594;22;20228;-81
2023/09/12 10:30:02;;;;;;;0.45;0.45;;;28.10;51.20;;;;;;6271234;22;20247;-83
2023/09/12 10:32:33;;;;;;;0.30;0.30;;;28.20;51.30;;;;;;6271829;22;20181;-82
2023/09/12 10:35:04;;;;;;;0.40;0.40;;;28.30;51.10;;;;;;6270739;22;20488;-82
2023/09/12 10:37:39;;;;;;;0.30;0.30;;;28.30;51.00;;;;;;6271868;22;20172;-81
2023/09/12 10:40:11;;;;;;;1.20;0.77;;;28.40;51.00;;;;;;6270009;22;20182;-83
2023/09/12 10:42:41;;;;;;;0.60;0.60;;;28.50;51.20;;;;;;6273555;22;20713;-82
2023/09/12 10:45:11;;;;;;;0.70;0.70;;;28.50;51.20;;;;;;6273308;22;20245;-81
2023/09/12 10:47:40;;;;;;;0.40;0.40;;;28.60;51.20;;;;;;6272929;22;20254;-81
2023/09/12 10:50:10;;;;;;;1.00;0.73;;;28.60;51.10;;;;;;6271879;22;20173;-81
2023/09/12 10:52:40;;;;;;;0.30;0.30;;;28.70;51.30;;;;;;6272590;22;20678;-81
2023/09/12 10:55:16;;;;;;;0.75;0.60;;;28.70;51.10;;;;;;6271303;22;20253;-81
2023/09/12 10:58:03;;;;;;;0.88;0.50;;;28.80;50.70;;;;;;6275083;22;20233;-80
2023/09/12 11:00:32;;;;;;;0.30;0.30;;;28.80;51.50;;;;;;6274505;22;20196;-80
2023/09/12 11:03:27;;;;;;;0.50;0.50;;;28.90;51.00;;;;;;6274543;22;20277;-84
2023/09/12 11:05:57;;;;;;;0.40;0.40;;;28.90;51.00;;;;;;6273233;22;20223;-81
2023/09/12 11:08:27;;;;;;;0.45;0.45;;;29.00;51.00;;;;;;6275408;22;20215;-81
2023/09/12 11:11:18;;;;;;;0.57;0.57;;;29.10;51.10;;;;;;6273744;22;20154;-82
2023/09/12 11:13:47;;;;;;;0.40;0.40;;;29.10;51.20;;;;;;6275269;22;20623;-82
2023/09/12 11:16:17;;;;;;;0.30;0.30;;;29.20;51.20;;;;;;6273723;22;20212;-82
2023/09/12 11:19:18;;;;;;;5.20;0.60;;;29.30;51.30;;;;;;6275555;22;20185;-81
2023/09/12 11:21:49;;;;;;;0.80;0.80;;;29.40;51.00;;;;;;6273871;22;20225;-82
2023/09/12 11:24:18;;;;;;;1.15;0.90;;;29.40;50.50;;;;;;6274823;22;20161;-82
2023/09/12 11:27:04;;;;;;;0.88;0.70;;;29.50;50.40;;;;;;6274870;22;20170;-82
2023/09/12 11:29:37;;;;;;;0.80;0.70;;;29.50;50.20;;;;;;6274942;22;20603;-82
2023/09/12 11:32:07;;;;;;;3.65;1.00;;;29.50;49.30;;;;;;6274683;22;20166;-82
2023/09/12 11:34:39;;;;;;;0.32;0.30;;;29.60;49.30;;;;;;6274474;22;20257;-82
2023/09/12 11:37:11;;;;;;;0.60;0.60;;;29.60;49.50;;;;;;6275082;22;20161;-82
2023/09/12 11:39:41;;;;;;;3.13;0.80;;;29.60;49.00;;;;;;6273146;22;20186;-81
2023/09/12 11:42:13;;;;;;;0.68;0.68;;;29.70;49.40;;;;;;6274202;22;20166;-81
2023/09/12 11:44:44;;;;;;;0.65;0.63;;;29.70;49.50;;;;;;6273647;22;20591;-81
2023/09/12 11:47:13;;;;;;;1.75;1.27;;;29.80;49.70;;;;;;6274840;22;20173;-83
2023/09/12 11:49:43;;;;;;;0.70;0.70;;;29.80;49.20;;;;;;6272385;22;20172;-82
2023/09/12 11:52:14;;;;;;;0.52;0.50;;;29.90;49.20;;;;;;6274831;22;20201;-82
2023/09/12 11:54:43;;;;;;;0.40;0.40;;;29.90;49.40;;;;;;6274272;22;20229;-81
2023/09/12 11:57:14;;;;;;;0.73;0.68;;;30.00;49.60;;;;;;6273759;22;20619;-82
2023/09/12 11:59:45;;;;;;;1.00;0.80;;;30.10;49.70;;;;;;6273201;22;20564;-83
2023/09/12 12:02:14;;;;;;;0.98;0.60;;;30.10;49.60;;;;;;6273668;22;20205;-84
2023/09/12 12:04:42;;;;;;;1.75;1.65;;;30.20;49.40;;;;;;6272496;22;20172;-84
2023/09/12 12:07:14;;;;;;;0.28;0.28;;;30.20;49.10;;;;;;6272317;22;20582;-82
2023/09/12 12:09:44;;;;;;;1.30;1.20;;;30.20;49.20;;;;;;6272986;22;20211;-83
2023/09/12 12:12:14;;;;;;;2.15;0.50;;;30.30;49.20;;;;;;6274935;22;20166;-83
2023/09/12 12:14:44;;;;;;;4.60;0.77;;;30.40;49.40;;;;;;6271743;22;20248;-83
2023/09/12 12:17:13;;;;;;;0.38;0.38;;;30.50;49.40;;;;;;6272467;22;20166;-84
2023/09/12 12:19:46;;;;;;;2.42;0.75;;;30.50;49.40;;;;;;6271129;22;20189;-82
2023/09/12 12:22:16;;;;;;;2.17;1.05;;;30.50;49.40;;;;;;6270961;22;20236;-83
2023/09/12 12:24:47;;;;;;;0.68;0.68;;;30.60;48.90;;;;;;6271304;22;20485;-87
2023/09/12 12:27:16;;;;;;;0.82;0.70;;;30.60;49.10;;;;;;6272818;22;20165;-81
2023/09/12 12:29:46;;;;;;;2.95;0.50;;;30.60;49.30;;;;;;6273088;22;20199;-83
2023/09/12 12:32:17;;;;;;;0.40;0.40;;;30.70;49.40;;;;;;6271800;22;20170;-83
2023/09/12 12:34:50;;;;;;;0.98;0.40;;;30.70;49.20;;;;;;6269515;22;20154;-83
2023/09/12 12:37:39;;;;;;;1.27;0.63;;;30.70;48.90;;;;;;6271060;22;20170;-83
2023/09/12 12:40:13;;;;;;;0.32;0.32;;;30.80;48.80;;;;;;6270709;22;20186;-83
2023/09/12 12:42:43;;;;;;;1.73;1.52;;;30.70;48.60;;;;;;6272327;22;20158;-84
2023/09/12 12:45:24;;;;;;;0.93;0.80;;;30.80;48.30;;;;;;6272830;22;20170;-83
2023/09/12 12:48:02;;;;;;;0.60;0.60;;;30.80;48.50;;;;;;6271811;22;20162;-84
2023/09/12 12:50:30;;;;;;;2.20;1.30;;;30.80;48.40;;;;;;6271280;22;20499;-84
2023/09/12 12:53:00;;;;;;;1.00;0.90;;;30.90;48.60;;;;;;6271925;22;20652;-83
2023/09/12 12:55:29;;;;;;;1.00;0.57;;;30.90;48.20;;;;;;6271443;22;20169;-84
2023/09/12 12:57:57;;;;;;;1.13;0.60;;;30.90;48.40;;;;;;6271673;22;20486;-83
2023/09/12 13:00:26;;;;;;;0.77;0.77;;;30.90;48.30;;;;;;6270857;22;20189;-82
2023/09/12 13:02:54;;;;;;;1.25;0.60;;;30.90;48.10;;;;;;6270011;22;20204;-84
2023/09/12 13:05:27;;;;;;;1.42;0.40;;;30.90;48.20;;;;;;6271772;22;20216;-84
2023/09/12 13:07:56;;;;;;;0.85;0.68;;;30.90;48.40;;;;;;6271798;22;20473;-85
2023/09/12 13:10:26;;;;;;;0.75;0.68;;;31.00;48.40;;;;;;6272973;22;20172;-84
2023/09/12 13:12:54;;;;;;;1.38;0.50;;;31.10;48.30;;;;;;6272126;22;20162;-83
2023/09/12 13:15:23;;;;;;;0.30;0.30;;;31.10;48.20;;;;;;6270515;22;20162;-84
2023/09/12 13:17:52;;;;;;;1.10;1.00;;;31.10;48.30;;;;;;6272600;22;20169;-83
2023/09/12 13:20:20;;;;;;;1.15;1.05;;;31.20;48.10;;;;;;6269950;22;20193;-84
2023/09/12 13:22:50;;;;;;;2.95;1.05;;;31.10;47.40;;;;;;6273062;22;20257;-85
2023/09/12 13:25:20;;;;;;;1.13;1.02;;;31.20;47.50;;;;;;6272226;22;20867;-84
2023/09/12 13:27:51;;;;;;;3.38;1.00;;;31.20;46.70;;;;;;6272576;22;20162;-83
2023/09/12 13:30:21;;;;;;;0.75;0.65;;;31.20;46.80;;;;;;6273018;22;20162;-82
2023/09/12 13:32:49;;;;;;;1.00;0.85;;;31.20;46.80;;;;;;6273698;22;20193;-83
2023/09/12 13:35:18;;;;;;;0.40;0.40;;;31.30;46.80;;;;;;6267095;22;20161;-80
2023/09/12 13:37:46;;;;;;;0.50;0.50;;;31.40;47.10;;;;;;6272955;22;20169;-83
2023/09/12 13:40:15;;;;;;;1.17;0.57;;;31.40;46.90;;;;;;6272596;22;20221;-81
2023/09/12 13:42:44;;;;;;;1.65;0.50;;;31.50;47.10;;;;;;6273835;22;20173;-86
2023/09/12 13:45:15;;;;;;;0.70;0.40;;;31.60;47.10;;;;;;6270453;22;20173;-82
2023/09/12 13:47:44;;;;;;;0.40;0.40;;;31.70;47.00;;;;;;6272673;22;20154;-83
2023/09/12 13:50:12;;;;;;;1.08;0.70;;;31.90;47.10;;;;;;6271153;22;20173;-83
2023/09/12 13:52:41;;;;;;;0.40;0.40;;;32.70;46.20;;;;;;6273752;22;20713;-82
2023/09/12 13:55:13;;;;;;;0.65;0.65;;;33.80;44.90;;;;;;6267957;22;20273;-83
2023/09/12 13:57:53;;;;;;;1.15;0.30;;;33.50;45.50;;;;;;6272702;22;20924;-84
2023/09/12 14:00:23;;;;;;;1.20;0.85;;;33.70;45.80;;;;;;6270683;22;20170;-83
2023/09/12 14:03:05;;;;;;;0.30;0.30;;;33.70;45.40;;;;;;6272904;22;20539;-84
2023/09/12 14:05:33;;;;;;;0.35;0.35;;;35.30;43.90;;;;;;6272821;22;20269;-84
2023/09/12 14:08:02;;;;;;;0.98;0.77;;;35.80;42.80;;;;;;6270173;22;20220;-83
2023/09/12 14:10:31;;;;;;;0.50;0.50;;;35.60;42.80;;;;;;6273983;22;20537;-83
2023/09/12 14:13:05;;;;;;;0.40;0.40;;;34.80;43.10;;;;;;6273440;22;20229;-82
2023/09/12 14:15:50;;;;;;;1.38;0.80;;;34.40;43.30;;;;;;6273576;22;20161;-82
2023/09/12 14:18:20;;;;;;;0.52;0.52;;;34.00;43.80;;;;;;6270293;22;20479;-80
2023/09/12 14:20:51;;;;;;;3.83;0.98;;;33.70;44.10;;;;;;6272807;22;20189;-82
2023/09/12 14:23:22;;;;;;;0.30;0.30;;;33.50;44.20;;;;;;6273919;22;20161;-83
2023/09/12 14:25:51;;;;;;;1.00;0.63;;;33.30;44.40;;;;;;6271952;22;20223;-86
2023/09/12 14:28:21;;;;;;;0.88;0.73;;;33.10;44.50;;;;;;6270397;22;20241;-83
2023/09/12 14:30:52;;;;;;;0.82;0.60;;;33.00;44.40;;;;;;6269446;22;20174;-82
2023/09/12 14:33:21;;;;;;;0.50;0.50;;;33.20;44.60;;;;;;6273292;22;20211;-83
2023/09/12 14:35:49;;;;;;;0.50;0.50;;;33.20;44.50;;;;;;6265887;22;20214;-83
2023/09/12 14:38:18;;;;;;;1.00;0.70;;;32.90;44.60;;;;;;6269272;22;20171;-81
2023/09/12 14:40:46;;;;;;;0.40;0.40;;;32.80;44.90;;;;;;6269255;22;20169;-82
2023/09/12 14:43:15;;;;;;;0.30;0.30;;;32.70;45.10;;;;;;6270771;22;20174;-81
2023/09/12 14:45:44;;;;;;;1.08;0.95;;;32.60;45.10;;;;;;6274630;22;20177;-81
2023/09/12 14:48:14;;;;;;;0.32;0.30;;;32.50;45.10;;;;;;6273966;22;20561;-83
2023/09/12 14:50:42;;;;;;;1.98;0.60;;;32.40;45.20;;;;;;6273070;22;20188;-84
2023/09/12 14:53:13;;;;;;;0.20;0.20;;;32.30;45.40;;;;;;6272214;22;20714;-85
2023/09/12 14:55:42;;;;;;;0.45;0.45;;;32.20;45.50;;;;;;6273155;22;20161;-83
2023/09/12 14:58:11;;;;;;;1.73;0.68;;;32.30;45.50;;;;;;6273347;22;20177;-83
2023/09/12 15:00:39;;;;;;;0.73;0.73;;;32.20;45.60;;;;;;6273113;22;20184;-85
2023/09/12 15:03:08;;;;;;;0.65;0.30;;;32.20;45.70;;;;;;6273981;22;20180;-82
2023/09/12 15:05:38;;;;;;;0.43;0.43;;;32.10;45.80;;;;;;6271488;22;20169;-83
2023/09/12 15:08:07;;;;;;;0.50;0.50;;;32.20;45.90;;;;;;6272662;22;20193;-83
2023/09/12 15:24:56;;;;;;;0.45;0.45;;;31.60;46.20;;;;;;6332839;22;20594;-83
2023/09/12 15:27:25;;;;;;;1.02;0.70;;;31.50;46.20;;;;;;6333499;22;20968;-82
2023/09/12 15:29:53;;;;;;;0.95;0.40;;;31.40;46.20;;;;;;6336224;22;20164;-82
2023/09/12 15:32:22;;;;;;;0.50;0.50;;;31.40;46.40;;;;;;6335438;22;20170;-82
2023/09/12 15:34:50;;;;;;;0.30;0.30;;;31.30;46.40;;;;;;6332618;22;20255;-81
2023/09/12 15:37:19;;;;;;;0.73;0.50;;;31.20;46.40;;;;;;6334080;22;20214;-82
2023/09/12 15:39:50;;;;;;;0.60;0.60;;;31.20;46.50;;;;;;6332775;22;20161;-83
2023/09/12 15:42:20;;;;;;;1.73;1.02;;;31.10;46.60;;;;;;6332685;22;20196;-83
2023/09/12 15:45:07;;;;;;;0.30;0.30;;;31.10;46.80;;;;;;6335005;22;20161;-83
2023/09/12 15:47:36;;;;;;;0.43;0.40;;;31.00;46.80;;;;;;6333002;22;20156;-83
2023/09/12 15:57:36;;;;;;;0.52;0.52;;;30.80;47.00;;;;;;6113684;23;20173;-83
2023/09/12 16:00:09;;;;;;;0.40;0.40;;;30.70;47.10;;;;;;6120507;23;20519;-84
2023/09/12 16:02:39;;;;;;;0.68;0.47;;;30.60;47.20;;;;;;6235785;23;20199;-84
2023/09/12 16:05:09;;;;;;;0.50;0.50;;;30.50;47.30;;;;;;6236593;23;20167;-78
2023/09/12 16:07:38;;;;;;;0.40;0.40;;;30.50;47.30;;;;;;6238264;23;20254;-82
2023/09/12 16:10:08;;;;;;;1.95;0.88;;;30.40;47.40;;;;;;6240654;23;20632;-82
2023/09/12 16:12:39;;;;;;;0.65;0.65;;;30.30;47.40;;;;;;6239734;23;20167;-82
2023/09/12 16:15:09;;;;;;;0.20;0.20;;;30.30;47.60;;;;;;6239884;23;20668;-84
2023/09/12 16:17:42;;;;;;;0.57;0.50;;;30.20;47.60;;;;;;6239035;23;20185;-85
2023/09/12 16:20:13;;;;;;;0.32;0.32;;;30.10;47.70;;;;;;6241896;23;20194;-84
2023/09/12 16:22:42;;;;;;;0.95;0.60;;;30.00;47.80;;;;;;6240592;23;20220;-83
2023/09/12 16:25:11;;;;;;;1.80;0.82;;;30.00;47.80;;;;;;6241034;23;20165;-83
2023/09/12 18:14:48;;;;;;;0.57;0.57;;;27.30;52.10;;;;;;6305390;22;20185;-82
2023/09/12 19:12:43;;;;;;;2.58;0.82;;;26.80;53.00;;;;;;6241624;23;20181;-84
2023/09/12 19:15:12;;;;;;;0.50;0.50;;;26.70;53.10;;;;;;6241177;23;20254;-85
2023/09/12 19:17:40;;;;;;;5.78;1.33;;;26.70;53.10;;;;;;6243661;23;20269;-86
2023/09/12 19:20:12;;;;;;;0.60;0.60;;;26.70;53.00;;;;;;6239994;23;20261;-86
2023/09/12 19:23:01;;;;;;;1.17;0.57;;;26.70;53.10;;;;;;6232274;22;20202;-83
2023/09/12 19:28:19;;;;;;;1.90;1.67;;;26.70;53.00;;;;;;6241324;23;20182;-84
2023/09/12 20:10:27;;;;;;;0.30;0.30;;;26.20;53.60;;;;;;6274631;22;20579;-85
2023/09/12 20:12:59;;;;;;;0.32;0.32;;;26.20;53.60;;;;;;6305599;22;20164;-89
2023/09/12 20:15:27;;;;;;;1.95;0.68;;;26.20;53.60;;;;;;6332011;22;20206;-84
2023/09/12 20:18:06;;;;;;;1.92;0.90;;;26.20;53.70;;;;;;6333369;22;20164;-84
2023/09/12 20:20:34;;;;;;;0.30;0.30;;;26.10;53.90;;;;;;6337198;22;20163;-82
2023/09/12 20:23:03;;;;;;;0.57;0.52;;;26.10;54.00;;;;;;6335164;22;20192;-84
2023/09/12 20:25:34;;;;;;;0.55;0.47;;;26.10;54.90;;;;;;6336426;22;20164;-83
2023/09/12 20:28:05;;;;;;;0.38;0.22;;;26.00;54.20;;;;;;6335764;22;20561;-83
2023/09/12 20:30:34;;;;;;;0.30;0.30;;;26.00;54.10;;;;;;6337254;22;20164;-84
2023/09/12 20:33:04;;;;;;;1.27;0.40;;;26.00;54.10;;;;;;6336060;22;20679;-84
2023/09/12 20:35:35;;;;;;;0.45;0.40;;;26.00;54.30;;;;;;6337612;22;20175;-83
2023/09/12 20:38:04;;;;;;;1.33;0.98;;;25.90;54.40;;;;;;6336982;22;20617;-84
2023/09/12 20:40:34;;;;;;;0.35;0.30;;;25.90;54.60;;;;;;6337733;22;20243;-84
2023/09/12 20:43:03;;;;;;;0.40;0.40;;;25.80;54.50;;;;;;6336167;22;20188;-84
2023/09/12 20:45:32;;;;;;;0.30;0.30;;;25.80;54.50;;;;;;6337616;22;20164;-84
2023/09/12 20:48:00;;;;;;;0.43;0.43;;;25.80;54.50;;;;;;6337528;22;20667;-84
2023/09/12 20:50:30;;;;;;;0.35;0.35;;;25.80;54.70;;;;;;6337502;22;20252;-84
2023/09/12 20:52:59;;;;;;;0.22;0.22;;;25.70;54.90;;;;;;6337689;22;20169;-84
2023/09/12 20:55:31;;;;;;;0.40;0.40;;;25.70;54.80;;;;;;6337200;22;20160;-84
2023/09/12 20:58:01;;;;;;;0.32;0.28;;;25.70;54.80;;;;;;6336032;22;20628;-84
2023/09/12 21:00:30;;;;;;;0.20;0.20;;;25.60;54.70;;;;;;6335654;22;20156;-83
2023/09/12 21:02:59;;;;;;;1.13;0.73;;;25.60;54.80;;;;;;6335625;22;20188;-85
2023/09/12 21:05:28;;;;;;;0.40;0.40;;;25.60;54.80;;;;;;6337482;22;20171;-84
2023/09/12 21:07:58;;;;;;;0.98;0.88;;;25.50;54.70;;;;;;6336290;22;20198;-84
2023/09/12 21:10:26;;;;;;;0.38;0.38;;;25.50;54.90;;;;;;6333112;22;20251;-83
2023/09/12 21:12:55;;;;;;;0.52;0.52;;;25.40;54.80;;;;;;6305194;22;20232;-84
2023/09/12 21:15:27;;;;;;;1.77;0.95;;;25.40;54.80;;;;;;6305685;22;20539;-84
2023/09/12 21:17:56;;;;;;;0.40;0.40;;;25.40;55.10;;;;;;6304569;22;20153;-83
2023/09/12 21:20:24;;;;;;;0.20;0.20;;;25.40;55.00;;;;;;6304681;22;20165;-83
2023/09/12 21:22:53;;;;;;;1.42;0.43;;;25.30;55.10;;;;;;6303646;22;20189;-83
2023/09/12 21:25:22;;;;;;;0.30;0.30;;;25.30;55.10;;;;;;6303671;22;20248;-83
2023/09/12 21:27:51;;;;;;;0.40;0.40;;;25.30;55.20;;;;;;6305660;22;20240;-84
2023/09/12 21:30:19;;;;;;;0.50;0.50;;;25.30;55.50;;;;;;6304677;22;20179;-84
2023/09/12 21:32:52;;;;;;;0.38;0.38;;;25.20;56.00;;;;;;6305088;22;20477;-83
2023/09/12 21:35:20;;;;;;;0.40;0.40;;;25.10;55.80;;;;;;6304917;22;20218;-84
2023/09/12 21:37:49;;;;;;;1.02;0.70;;;25.10;55.90;;;;;;6305251;22;20501;-83
2023/09/12 21:40:18;;;;;;;0.20;0.20;;;25.00;55.80;;;;;;6304572;22;20169;-84
2023/09/12 21:42:46;;;;;;;0.40;0.40;;;25.00;56.50;;;;;;6304607;22;20170;-84
2023/09/12 21:45:15;;;;;;;0.30;0.30;;;25.00;55.90;;;;;;6305173;22;20614;-83
2023/09/12 21:47:45;;;;;;;6.32;0.65;;;25.00;55.90;;;;;;6305382;22;20169;-84
2023/09/12 21:50:16;;;;;;;0.50;0.50;;;25.00;56.30;;;;;;6303511;22;20157;-83
2023/09/12 21:52:45;;;;;;;0.50;0.50;;;24.90;56.20;;;;;;6305632;22;20153;-83
2023/09/12 21:55:14;;;;;;;0.20;0.20;;;24.90;56.20;;;;;;6304477;22;20251;-84
2023/09/12 21:57:42;;;;;;;0.77;0.47;;;24.90;56.30;;;;;;6304371;22;20252;-83
2023/09/12 22:00:19;;;;;;;0.20;0.20;;;24.80;56.30;;;;;;6304791;22;20169;-84
2023/09/12 22:02:50;;;;;;;0.20;0.20;;;24.80;56.30;;;;;;6304799;22;20629;-83
2023/09/12 22:05:21;;;;;;;0.20;0.20;;;24.80;56.40;;;;;;6303982;22;20599;-84
2023/09/12 22:07:50;;;;;;;0.40;0.40;;;24.80;56.40;;;;;;6305491;22;20568;-84
2023/09/12 22:10:19;;;;;;;0.30;0.30;;;24.70;56.40;;;;;;6304425;22;20511;-83
2023/09/12 22:12:48;;;;;;;0.32;0.32;;;24.70;56.40;;;;;;6336849;22;20153;-84
2023/09/12 22:15:18;;;;;;;1.95;0.63;;;24.70;56.60;;;;;;6334772;22;20169;-83
2023/09/12 22:17:47;;;;;;;0.40;0.40;;;24.60;56.70;;;;;;6334992;22;20164;-83
2023/09/12 22:20:16;;;;;;;0.73;0.73;;;24.60;56.70;;;;;;6334567;22;20199;-83
2023/09/12 22:22:46;;;;;;;0.47;0.35;;;24.60;56.90;;;;;;6334960;22;20247;-84
2023/09/12 22:25:15;;;;;;;0.50;0.50;;;24.60;57.30;;;;;;6334351;22;20176;-84
2023/09/12 22:27:44;;;;;;;0.40;0.40;;;24.50;57.90;;;;;;6335888;22;20169;-83
2023/09/12 22:30:13;;;;;;;0.82;0.75;;;24.50;57.70;;;;;;6335743;22;20172;-83
2023/09/12 22:32:42;;;;;;;0.52;0.52;;;24.40;57.90;;;;;;6335742;22;20165;-83
2023/09/12 22:35:11;;;;;;;0.43;0.43;;;24.40;58.70;;;;;;6334275;22;20204;-83
2023/09/12 22:37:41;;;;;;;0.30;0.30;;;24.30;59.00;;;;;;6335365;22;20196;-83
2023/09/12 22:40:12;;;;;;;1.75;0.77;;;24.30;59.20;;;;;;6335785;22;20240;-84
2023/09/12 22:42:46;;;;;;;0.50;0.50;;;24.30;59.60;;;;;;6336524;22;20164;-84
2023/09/12 22:45:14;;;;;;;1.20;1.10;;;24.20;59.90;;;;;;6335360;22;20299;-84